createdAt,value
2022-12-22T06:02:49.544Z,98702.94
2022-12-22T06:05:16.342Z,98700.13
2022-12-22T06:07:43.269Z,98699.22
2022-12-22T06:10:12.649Z,98699.13
2022-12-22T06:12:41.326Z,98706.16
2022-12-22T06:15:10.655Z,98698.09
2022-12-22T06:17:43.903Z,98694.66
2022-12-22T06:20:12.173Z,98694.53
2022-12-22T06:22:39.212Z,98694.38
2022-12-22T06:25:06.206Z,98690.88
2022-12-22T06:27:33.477Z,98686.31
2022-12-22T06:30:00.045Z,98685.31
2022-12-22T06:32:27.337Z,98689.84
2022-12-22T06:34:53.878Z,98688.91
2022-12-22T06:37:20.750Z,98688.81
2022-12-22T06:39:47.963Z,98680.00
2022-12-22T06:42:33.310Z,98683.44
2022-12-22T06:44:59.864Z,98684.28
2022-12-22T06:47:26.719Z,98681.56
2022-12-22T06:49:53.639Z,98677.19
2022-12-22T06:52:20.159Z,98691.22
2022-12-22T06:54:47.402Z,98689.53
2022-12-22T06:57:14.012Z,98694.66
2022-12-22T06:59:41.138Z,98693.03
2022-12-22T07:02:10.917Z,98692.16
2022-12-22T07:04:38.366Z,98695.69
2022-12-22T07:07:04.924Z,98699.88
2022-12-22T07:09:32.115Z,98697.31
2022-12-22T07:11:58.667Z,98698.25
2022-12-22T07:14:25.937Z,98686.88
2022-12-22T07:16:52.874Z,98687.78
2022-12-22T07:19:19.870Z,98690.44
2022-12-22T07:21:48.659Z,98686.88
2022-12-22T07:24:16.952Z,98693.03
2022-12-22T07:26:43.513Z,98693.72
2022-12-22T07:29:10.807Z,98699.88
2022-12-22T07:31:37.435Z,98700.81
2022-12-22T07:34:04.731Z,98701.59
2022-12-22T07:36:31.282Z,98697.91
2022-12-22T07:38:58.442Z,98697.84
2022-12-22T07:41:43.446Z,98700.41
2022-12-22T07:44:11.730Z,98692.56
2022-12-22T07:46:39.606Z,98705.72
2022-12-22T07:49:26.481Z,98705.53
2022-12-22T07:51:56.654Z,98704.88
2022-12-22T07:54:24.692Z,98715.31
2022-12-22T07:56:51.619Z,98708.19
2022-12-22T07:59:19.520Z,98714.44
2022-12-22T08:01:46.279Z,98710.94
2022-12-22T08:04:14.668Z,98711.00
2022-12-22T08:06:41.437Z,98718.81
2022-12-22T08:09:09.685Z,98718.81
2022-12-22T08:11:36.612Z,98718.06
2022-12-22T08:14:03.901Z,98720.59
2022-12-22T08:16:30.591Z,98724.88
2022-12-22T08:18:57.960Z,98729.25
2022-12-22T08:21:24.696Z,98733.63
2022-12-22T08:23:52.209Z,98740.47
2022-12-22T08:26:26.404Z,98744.84
2022-12-22T08:29:07.726Z,98738.75
2022-12-22T08:31:35.007Z,98740.63
2022-12-22T08:34:05.775Z,98742.38
2022-12-22T08:36:36.651Z,98745.94
2022-12-22T08:39:04.861Z,98735.34
2022-12-22T08:41:50.825Z,98744.06
2022-12-22T08:44:28.921Z,98749.38
2022-12-22T08:46:57.581Z,98747.50
2022-12-22T08:49:26.369Z,98743.88
2022-12-22T08:51:53.801Z,98740.34
2022-12-22T08:54:21.449Z,98752.59
2022-12-22T08:56:48.220Z,98768.38
2022-12-22T08:59:16.251Z,98759.69
2022-12-22T09:01:46.821Z,98769.38
2022-12-22T09:04:16.095Z,98775.59
2022-12-22T09:06:42.878Z,98777.16
2022-12-22T09:09:12.378Z,98786.75
2022-12-22T09:11:40.385Z,98792.84
2022-12-22T09:14:08.705Z,98794.66
2022-12-22T09:16:36.301Z,98798.06
2022-12-22T09:19:03.417Z,98794.50
2022-12-22T09:21:31.092Z,98801.66
2022-12-22T09:23:57.848Z,98801.66
2022-12-22T09:26:27.406Z,98810.41
2022-12-22T09:28:55.384Z,98805.28
2022-12-22T09:31:24.508Z,98810.41
2022-12-22T09:33:51.726Z,98809.47
2022-12-22T09:36:23.546Z,98808.50
2022-12-22T09:38:50.205Z,98822.50
2022-12-22T09:41:35.282Z,98814.59
2022-12-22T09:44:05.695Z,98820.69
2022-12-22T09:46:35.177Z,98826.00
2022-12-22T09:49:04.876Z,98833.00
2022-12-22T09:51:34.740Z,98832.88
2022-12-22T09:54:02.075Z,98842.59
2022-12-22T09:56:30.549Z,98845.19
2022-12-22T09:58:58.193Z,98846.91
2022-12-22T10:01:37.533Z,98852.19
2022-12-22T10:04:37.163Z,98846.91
2022-12-22T10:07:13.065Z,98846.03
2022-12-22T10:09:55.539Z,98854.72
2022-12-22T10:12:25.412Z,98853.84
2022-12-22T10:14:54.501Z,98853.00
2022-12-22T10:17:32.366Z,98854.78
2022-12-22T10:20:28.391Z,98862.34
2022-12-22T10:23:06.695Z,98862.19
2022-12-22T10:28:48.042Z,98873.81
2022-12-22T10:31:24.830Z,98878.28
2022-12-22T10:33:54.648Z,98877.44
2022-12-22T10:36:25.431Z,98883.66
2022-12-22T10:38:58.873Z,98888.03
2022-12-22T10:41:28.707Z,98888.03
2022-12-22T10:43:59.511Z,98889.75
2022-12-22T10:46:47.854Z,98895.84
2022-12-22T10:49:24.003Z,98911.66
2022-12-22T10:52:27.675Z,98912.56
2022-12-22T10:55:21.356Z,98907.31
2022-12-22T10:57:48.872Z,98927.00
2022-12-22T11:00:30.625Z,98934.97
2022-12-22T11:03:01.943Z,98950.88
2022-12-22T11:05:30.366Z,98952.75
2022-12-22T11:07:57.684Z,98956.19
2022-12-22T11:10:52.597Z,98952.81
2022-12-22T11:13:37.617Z,98945.88
2022-12-22T11:16:10.707Z,98954.78
2022-12-22T11:19:04.200Z,98967.41
2022-12-22T11:21:52.119Z,98963.03
2022-12-22T11:24:39.031Z,98963.97
2022-12-22T11:27:24.222Z,98967.56
2022-12-22T11:30:11.365Z,98970.22
2022-12-22T11:33:05.011Z,98977.41
2022-12-22T11:36:10.058Z,98985.16
2022-12-22T11:38:54.016Z,98986.78
2022-12-22T11:41:56.595Z,98982.41
2022-12-22T11:44:56.832Z,98992.94
2022-12-22T11:47:43.426Z,98994.66
2022-12-22T11:50:58.795Z,98991.78
2022-12-22T11:53:40.983Z,98988.03
2022-12-22T11:56:38.357Z,98989.91
2022-12-22T11:59:14.285Z,98992.25
2022-12-22T12:02:22.408Z,98995.06
2022-12-22T12:05:11.250Z,98993.19
2022-12-22T12:07:42.930Z,98995.69
2022-12-22T12:10:25.462Z,98997.09
2022-12-22T12:13:21.171Z,98997.88
2022-12-22T12:16:18.797Z,99002.03
2022-12-22T12:18:45.438Z,99016.91
2022-12-22T12:21:23.510Z,99016.91
2022-12-22T12:24:08.069Z,99026.53
2022-12-22T12:26:44.946Z,99032.72
2022-12-22T12:29:41.281Z,99038.94
2022-12-22T12:32:15.208Z,99028.09
2022-12-22T12:34:46.849Z,99044.97
2022-12-22T12:37:27.076Z,99039.72
2022-12-22T12:40:20.535Z,99059.72
2022-12-22T12:42:48.044Z,99060.19
2022-12-22T12:45:41.288Z,99064.50
2022-12-22T12:48:20.312Z,99068.63
2022-12-22T12:50:52.122Z,99066.75
2022-12-22T12:53:20.687Z,99068.63
2022-12-22T12:55:50.558Z,99066.13
2022-12-22T12:58:35.653Z,99063.31
2022-12-22T13:01:04.988Z,99070.34
2022-12-22T13:04:01.870Z,99069.47
2022-12-22T13:06:57.479Z,99063.22
2022-12-22T13:09:49.955Z,99066.75
2022-12-22T13:12:40.447Z,99070.34
2022-12-22T13:15:37.379Z,99060.03
2022-12-22T13:18:29.036Z,99062.06
2022-12-22T13:21:26.066Z,99073.53
2022-12-22T13:26:54.740Z,99071.72
2022-12-22T13:29:40.378Z,99071.78
2022-12-22T13:32:22.868Z,99070.97
2022-12-22T13:37:47.336Z,99077.94
2022-12-22T13:40:23.081Z,99089.50
2022-12-22T13:42:50.300Z,99081.69
2022-12-22T13:45:19.575Z,99089.69
2022-12-22T13:47:48.576Z,99088.91
2022-12-22T13:50:30.810Z,99091.81
2022-12-22T13:52:58.604Z,99095.38
2022-12-22T13:55:28.690Z,99100.53
2022-12-22T13:57:59.037Z,99111.13
2022-12-22T14:00:28.487Z,99105.13
2022-12-22T14:02:55.910Z,99105.13
2022-12-22T14:05:22.724Z,99108.00
2022-12-22T14:08:06.111Z,99106.19
2022-12-22T14:10:40.959Z,99116.91
2022-12-22T14:13:16.025Z,99104.81
2022-12-22T14:15:44.557Z,99101.38
2022-12-22T14:18:17.283Z,99112.13
2022-12-22T14:20:47.258Z,99119.44
2022-12-22T14:23:29.740Z,99118.63
2022-12-22T14:25:57.269Z,99131.19
2022-12-22T14:28:31.818Z,99135.78
2022-12-22T14:31:00.570Z,99140.50
2022-12-22T14:33:33.357Z,99142.63
2022-12-22T14:36:16.895Z,99143.91
2022-12-22T14:38:50.472Z,99145.75
2022-12-22T14:41:40.782Z,99147.75
2022-12-22T14:44:16.788Z,99150.59
2022-12-22T14:46:45.035Z,99154.56
2022-12-22T14:49:18.570Z,99152.00
2022-12-22T14:52:05.927Z,99159.31
2022-12-22T14:54:33.356Z,99162.09
2022-12-22T14:57:15.543Z,99164.84
2022-12-22T15:00:02.627Z,99166.06
2022-12-22T15:02:40.498Z,99166.25
2022-12-22T15:05:09.919Z,99167.38
2022-12-22T15:10:43.834Z,99154.66
2022-12-22T15:13:22.493Z,99158.38
2022-12-22T15:15:52.723Z,99171.81
2022-12-22T15:18:26.815Z,99167.63
2022-12-22T15:20:57.659Z,99170.47
2022-12-22T15:23:25.164Z,99169.75
2022-12-22T15:25:51.754Z,99162.91
2022-12-22T15:28:18.925Z,99163.91
2022-12-22T15:30:45.792Z,99171.88
2022-12-22T15:33:18.771Z,99173.94
2022-12-22T15:35:46.156Z,99173.16
2022-12-22T15:38:16.283Z,99168.00
2022-12-22T15:40:43.442Z,99168.25
2022-12-22T15:43:22.694Z,99170.03
2022-12-22T15:45:58.882Z,99171.13
2022-12-22T15:48:30.985Z,99173.91
2022-12-22T15:50:58.455Z,99172.31
2022-12-22T15:53:25.425Z,99171.53
2022-12-22T15:55:55.302Z,99178.69
2022-12-22T15:58:26.300Z,99176.09
2022-12-22T16:00:53.315Z,99171.84
2022-12-22T16:03:20.691Z,99171.16
2022-12-22T16:05:47.278Z,99171.28
2022-12-22T16:08:18.480Z,99169.69
2022-12-22T16:10:46.733Z,99164.47
2022-12-22T16:13:15.852Z,99161.97
2022-12-22T16:15:42.808Z,99162.88
2022-12-22T16:18:13.165Z,99156.88
2022-12-22T16:20:42.902Z,99148.97
2022-12-22T16:23:22.438Z,99146.38
2022-12-22T16:25:49.895Z,99143.81
2022-12-22T16:28:24.856Z,99142.19
2022-12-22T16:30:52.215Z,99136.03
2022-12-22T16:33:20.449Z,99136.91
2022-12-22T16:35:47.280Z,99136.16
2022-12-22T16:38:18.667Z,99131.03
2022-12-22T16:40:51.668Z,99130.22
2022-12-22T16:46:15.965Z,99130.47
2022-12-22T16:48:47.107Z,99124.44
2022-12-22T16:51:26.304Z,99120.19
2022-12-22T16:53:53.864Z,99120.31
2022-12-22T16:56:26.774Z,99120.44
2022-12-22T16:58:54.159Z,99114.41
2022-12-22T17:01:38.308Z,99098.72
2022-12-22T17:04:12.388Z,99102.31
2022-12-22T17:06:40.112Z,99099.66
2022-12-22T17:09:13.284Z,99097.91
2022-12-22T17:11:40.017Z,99106.75
2022-12-22T17:14:23.133Z,99089.16
2022-12-22T17:16:50.876Z,99098.75
2022-12-22T17:19:17.470Z,99095.22
2022-12-22T17:21:44.986Z,99083.69
2022-12-22T17:24:15.061Z,99076.56
2022-12-22T17:26:42.714Z,99076.66
2022-12-22T17:29:16.275Z,99086.38
2022-12-22T17:31:43.706Z,99085.50
2022-12-22T17:34:14.906Z,99085.50
2022-12-22T17:36:43.125Z,99087.28
2022-12-22T17:39:18.431Z,99084.50
2022-12-22T17:41:49.032Z,99086.19
2022-12-22T17:44:22.656Z,99087.91
2022-12-22T17:46:50.239Z,99090.34
2022-12-22T17:49:19.771Z,99087.63
2022-12-22T17:51:47.450Z,99083.19
2022-12-22T17:54:31.969Z,99074.50
2022-12-22T17:57:03.926Z,99067.47
2022-12-22T17:59:30.739Z,99066.50
2022-12-22T18:01:58.160Z,99062.06
2022-12-22T18:04:24.863Z,99055.88
2022-12-22T18:06:52.094Z,99054.13
2022-12-22T18:09:21.677Z,99056.75
2022-12-22T18:11:49.684Z,99047.00
2022-12-22T18:14:16.496Z,99053.03
2022-12-22T18:16:44.267Z,99052.16
2022-12-22T18:19:10.911Z,99051.19
2022-12-22T18:21:38.220Z,99047.59
2022-12-22T18:24:05.169Z,99041.44
2022-12-22T18:26:32.630Z,99042.28
2022-12-22T18:28:59.795Z,99038.66
2022-12-22T18:31:26.816Z,99040.38
2022-12-22T18:33:54.134Z,99029.78
2022-12-22T18:36:30.807Z,99026.94
2022-12-22T18:38:59.752Z,99026.94
2022-12-22T18:41:29.238Z,99020.84
2022-12-22T18:43:56.576Z,99018.13
2022-12-22T18:46:23.792Z,99018.06
2022-12-22T18:48:51.098Z,99011.84
2022-12-22T18:51:24.617Z,99003.81
2022-12-22T18:53:53.495Z,99000.25
2022-12-22T18:56:22.001Z,99004.59
2022-12-22T18:58:49.298Z,98995.78
2022-12-22T19:01:26.704Z,98991.22
2022-12-22T19:03:55.943Z,98990.34
2022-12-22T19:06:23.819Z,98990.34
2022-12-22T19:08:50.980Z,98988.53
2022-12-22T19:11:23.905Z,98986.91
2022-12-22T19:13:51.987Z,98977.94
2022-12-22T19:16:25.211Z,98974.38
2022-12-22T19:18:52.024Z,98966.38
2022-12-22T19:21:19.450Z,98964.53
2022-12-22T19:23:46.903Z,98968.81
2022-12-22T19:26:26.744Z,98955.66
2022-12-22T19:29:03.396Z,98951.25
2022-12-22T19:31:33.745Z,98939.81
2022-12-22T19:34:03.840Z,98940.66
2022-12-22T19:36:32.240Z,98929.97
2022-12-22T19:39:05.475Z,98934.34
2022-12-22T19:41:46.277Z,98926.41
2022-12-22T19:44:17.453Z,98918.22
2022-12-22T19:46:45.163Z,98918.94
2022-12-22T19:49:20.894Z,98917.16
2022-12-22T19:51:48.685Z,98911.97
2022-12-22T19:54:15.921Z,98906.03
2022-12-22T19:56:46.232Z,98913.84
2022-12-22T19:59:25.991Z,98908.44
2022-12-22T20:01:56.423Z,98904.81
2022-12-22T20:04:23.131Z,98903.00
2022-12-22T20:06:50.317Z,98904.66
2022-12-22T20:09:16.914Z,98901.97
2022-12-22T20:11:44.768Z,98902.81
2022-12-22T20:14:19.138Z,98898.53
2022-12-22T20:16:45.860Z,98888.66
2022-12-22T20:19:14.494Z,98889.47
2022-12-22T20:21:44.156Z,98885.03
2022-12-22T20:24:21.343Z,98879.72
2022-12-22T20:26:53.859Z,98878.75
2022-12-22T20:29:21.453Z,98871.66
2022-12-22T20:31:48.783Z,98869.00
2022-12-22T20:34:15.394Z,98872.31
2022-12-22T20:36:43.365Z,98868.81
2022-12-22T20:39:16.481Z,98868.88
2022-12-22T20:41:47.025Z,98861.72
2022-12-22T20:44:17.837Z,98864.25
2022-12-22T20:46:44.396Z,98858.75
2022-12-22T20:49:15.362Z,98852.47
2022-12-22T20:51:43.147Z,98852.47
2022-12-22T20:54:15.161Z,98847.88
2022-12-22T20:56:43.817Z,98841.59
2022-12-22T20:59:22.483Z,98847.78
2022-12-22T21:01:50.830Z,98837.06
2022-12-22T21:04:18.832Z,98834.31
2022-12-22T21:06:49.754Z,98831.56
2022-12-22T21:09:17.775Z,98838.56
2022-12-22T21:11:44.999Z,98835.13
2022-12-22T21:14:12.724Z,98840.22
2022-12-22T21:16:40.427Z,98835.63
2022-12-22T21:19:08.087Z,98831.22
2022-12-22T21:21:34.741Z,98831.13
2022-12-22T21:24:01.982Z,98835.38
2022-12-22T21:26:35.496Z,98830.81
2022-12-22T21:29:09.623Z,98819.34
